Weather at Lar de Paz S.A. Heliport

Public forecast

Using degrees Celsius for public forecast. Weather courtesy of forecast.io.

Closest aviation weather report (METAR) to Lar de Paz S.A. Heliport

Closest report is Minister Pistarini International Airport, 6.6 nm (12.3 km) ESE.

2024/05/26 09:00 (retrieved 1 hour ago)

SAEZ 260900Z 22002KT 9999 SCT048 01/00 Q1030 NOSIG

Closest aviation forecast (TAF) to Lar de Paz S.A. Heliport

Closest forecast is Minister Pistarini International Airport, 6.6 nm (12.3 km) ESE.

2024/05/26 06:03 (retrieved 4 hours ago)

TAF SAEZ 260500Z 2606/2706 VRB03KT CAVOK TX10/2618Z TN02/2610Z PROB3O TEMPO 2606/2612 14005KT 5000 BR NSC BECMG 2612/2615 09005KT OVC030